LSGG/GVA METAR and TAF weather

Enter ICAO airport designator
Station Type Date Time Source
LSGG METAR 2021/05/10 22:20 UTC NOAA

LSGG 102220Z AUTO VRB01KT 9999 -RA SCT014 BKN021 11/09 Q1010 REDZ NOSIG


Station Type Date Time Source
LSGG Decoded METAR 2021/05/10 22:20 UTC NOAA

Geneve-Cointrin, Switzerland (LSGG) 46-15N 006-08E 416M
May 10, 2021 - 06:20 PM EDT / 2021.05.10 2220 UTC
Wind: Variable at 1 MPH (1 KT):0
Visibility: greater than 7 mile(s):0
Sky conditions: mostly cloudy
Weather: light rain
Temperature: 51 F (11 C)
Dew Point: 48 F (9 C)
Relative Humidity: 87%
Pressure (altimeter): 29.83 in. Hg (1010 hPa)
ob: LSGG 102220Z AUTO VRB01KT 9999 -RA SCT014 BKN021 11/09 Q1010 REDZ NOSIG
cycle: 22

Station Type Date Time Source
LSGG TAF 2021/05/10 21:36 UTC NOAA

TAF LSGG 102025Z 1021/1203 VRB02KT 9999 -RA FEW010 SCT050 TX14/1114Z TN10/1105Z
TEMPO 1102/1107 4500 SHRA PROB30
TEMPO 1115/1120 32012KT 4500 SHRA

Example: see airport list